sensor_id;sensor_type;location;lat;lon;timestamp;pressure;altitude;pressure_sealevel;temperature;humidity
46412;BME280;32113;42.012;24.870;2022-08-19T00:01:21;98490.47;;;26.25;39.77
46412;BME280;32113;42.012;24.870;2022-08-19T00:03:47;98497.59;;;26.23;40.06
46412;BME280;32113;42.012;24.870;2022-08-19T00:06:14;98495.13;;;26.21;39.97
46412;BME280;32113;42.012;24.870;2022-08-19T00:08:39;98493.72;;;26.17;39.96
46412;BME280;32113;42.012;24.870;2022-08-19T00:11:05;98492.50;;;26.21;40.13
46412;BME280;32113;42.012;24.870;2022-08-19T00:13:31;98507.38;;;26.32;39.48
46412;BME280;32113;42.012;24.870;2022-08-19T00:15:57;98496.97;;;26.31;39.66
46412;BME280;32113;42.012;24.870;2022-08-19T00:18:24;98492.69;;;26.30;39.58
46412;BME280;32113;42.012;24.870;2022-08-19T00:20:49;98489.56;;;26.15;39.79
46412;BME280;32113;42.012;24.870;2022-08-19T00:23:15;98496.97;;;26.09;39.88
46412;BME280;32113;42.012;24.870;2022-08-19T00:25:41;98494.22;;;26.11;39.86
46412;BME280;32113;42.012;24.870;2022-08-19T00:28:06;98496.03;;;26.10;40.27
46412;BME280;32113;42.012;24.870;2022-08-19T00:30:32;98491.88;;;26.08;40.07
46412;BME280;32113;42.012;24.870;2022-08-19T00:32:58;98495.50;;;26.17;40.26
46412;BME280;32113;42.012;24.870;2022-08-19T00:35:23;98491.72;;;26.31;39.91
46412;BME280;32113;42.012;24.870;2022-08-19T00:37:49;98487.78;;;26.46;39.55
46412;BME280;32113;42.012;24.870;2022-08-19T00:40:17;98483.19;;;26.17;39.67
46412;BME280;32113;42.012;24.870;2022-08-19T00:42:44;98484.53;;;26.11;40.04
46412;BME280;32113;42.012;24.870;2022-08-19T00:45:23;98480.31;;;25.99;40.28
46412;BME280;32113;42.012;24.870;2022-08-19T00:47:49;98481.03;;;26.01;39.92
46412;BME280;32113;42.012;24.870;2022-08-19T00:50:17;98472.69;;;25.75;40.73
46412;BME280;32113;42.012;24.870;2022-08-19T00:52:46;98474.50;;;25.74;40.94
46412;BME280;32113;42.012;24.870;2022-08-19T00:55:19;98481.06;;;25.68;41.29
46412;BME280;32113;42.012;24.870;2022-08-19T00:57:53;98471.94;;;25.63;41.15
46412;BME280;32113;42.012;24.870;2022-08-19T01:00:20;98472.75;;;25.63;41.32
46412;BME280;32113;42.012;24.870;2022-08-19T01:02:46;98466.34;;;25.56;41.07
46412;BME280;32113;42.012;24.870;2022-08-19T01:05:19;98458.13;;;25.38;41.67
46412;BME280;32113;42.012;24.870;2022-08-19T01:07:47;98449.28;;;25.39;41.64
46412;BME280;32113;42.012;24.870;2022-08-19T01:10:14;98456.88;;;25.65;41.08
46412;BME280;32113;42.012;24.870;2022-08-19T01:12:41;98449.69;;;25.67;40.71
46412;BME280;32113;42.012;24.870;2022-08-19T01:15:08;98451.28;;;25.79;40.34
46412;BME280;32113;42.012;24.870;2022-08-19T01:17:36;98445.13;;;25.90;40.40
46412;BME280;32113;42.012;24.870;2022-08-19T01:20:04;98446.22;;;25.66;40.87
46412;BME280;32113;42.012;24.870;2022-08-19T01:25:05;98437.03;;;25.72;40.46
46412;BME280;32113;42.012;24.870;2022-08-19T01:27:42;98440.41;;;25.63;40.97
46412;BME280;32113;42.012;24.870;2022-08-19T01:30:10;98441.78;;;25.67;40.83
46412;BME280;32113;42.012;24.870;2022-08-19T01:32:36;98441.75;;;25.78;40.65
46412;BME280;32113;42.012;24.870;2022-08-19T01:35:03;98442.19;;;25.62;40.98
46412;BME280;32113;42.012;24.870;2022-08-19T01:37:29;98449.69;;;25.67;40.94
46412;BME280;32113;42.012;24.870;2022-08-19T01:39:55;98454.34;;;25.84;40.69
46412;BME280;32113;42.012;24.870;2022-08-19T01:42:21;98454.34;;;25.84;40.32
46412;BME280;32113;42.012;24.870;2022-08-19T01:44:47;98454.94;;;25.67;40.39
46412;BME280;32113;42.012;24.870;2022-08-19T01:47:12;98462.47;;;25.60;40.73
46412;BME280;32113;42.012;24.870;2022-08-19T01:49:38;98463.22;;;25.51;41.13
46412;BME280;32113;42.012;24.870;2022-08-19T01:52:04;98472.47;;;25.33;41.57
46412;BME280;32113;42.012;24.870;2022-08-19T01:54:30;98472.34;;;25.35;41.62
46412;BME280;32113;42.012;24.870;2022-08-19T01:57:03;98484.31;;;25.28;41.53
46412;BME280;32113;42.012;24.870;2022-08-19T01:59:30;98489.13;;;25.23;41.69
46412;BME280;32113;42.012;24.870;2022-08-19T02:01:56;98487.59;;;25.09;42.03
46412;BME280;32113;42.012;24.870;2022-08-19T02:04:22;98492.97;;;24.96;42.34
46412;BME280;32113;42.012;24.870;2022-08-19T02:06:48;98488.94;;;24.91;42.69
46412;BME280;32113;42.012;24.870;2022-08-19T02:09:14;98486.41;;;24.90;42.52
46412;BME280;32113;42.012;24.870;2022-08-19T02:11:41;98499.91;;;24.85;42.89
46412;BME280;32113;42.012;24.870;2022-08-19T02:14:07;98496.06;;;24.89;42.65
46412;BME280;32113;42.012;24.870;2022-08-19T02:16:33;98496.91;;;24.90;42.64
46412;BME280;32113;42.012;24.870;2022-08-19T02:18:59;98495.00;;;25.03;42.03
46412;BME280;32113;42.012;24.870;2022-08-19T02:21:29;98503.22;;;24.99;42.39
46412;BME280;32113;42.012;24.870;2022-08-19T02:23:55;98507.50;;;25.11;42.14
46412;BME280;32113;42.012;24.870;2022-08-19T02:26:21;98503.00;;;24.90;42.59
46412;BME280;32113;42.012;24.870;2022-08-19T02:28:47;98511.69;;;24.91;42.57
46412;BME280;32113;42.012;24.870;2022-08-19T02:31:18;98524.34;;;24.86;42.51
46412;BME280;32113;42.012;24.870;2022-08-19T02:33:44;98525.63;;;24.80;42.89
46412;BME280;32113;42.012;24.870;2022-08-19T02:36:11;98521.81;;;24.73;43.34
46412;BME280;32113;42.012;24.870;2022-08-19T02:38:38;98515.72;;;24.72;42.94
46412;BME280;32113;42.012;24.870;2022-08-19T02:41:08;98523.00;;;24.69;43.03
46412;BME280;32113;42.012;24.870;2022-08-19T02:43:36;98528.28;;;24.57;43.09
46412;BME280;32113;42.012;24.870;2022-08-19T02:48:39;98527.78;;;24.52;43.47
46412;BME280;32113;42.012;24.870;2022-08-19T02:51:04;98532.66;;;24.57;43.42
46412;BME280;32113;42.012;24.870;2022-08-19T02:53:30;98541.38;;;24.57;43.21
46412;BME280;32113;42.012;24.870;2022-08-19T02:55:56;98534.56;;;24.66;43.20
46412;BME280;32113;42.012;24.870;2022-08-19T02:58:22;98533.50;;;24.57;43.14
46412;BME280;32113;42.012;24.870;2022-08-19T03:00:51;98532.16;;;24.40;43.60
46412;BME280;32113;42.012;24.870;2022-08-19T03:03:17;98539.31;;;24.38;43.61
46412;BME280;32113;42.012;24.870;2022-08-19T03:05:44;98540.38;;;24.24;44.11
46412;BME280;32113;42.012;24.870;2022-08-19T03:08:11;98538.72;;;24.34;43.95
46412;BME280;32113;42.012;24.870;2022-08-19T03:10:46;98545.16;;;24.30;43.97
46412;BME280;32113;42.012;24.870;2022-08-19T03:13:14;98542.31;;;24.33;44.00
46412;BME280;32113;42.012;24.870;2022-08-19T03:15:46;98543.13;;;24.34;43.96
46412;BME280;32113;42.012;24.870;2022-08-19T03:18:12;98544.78;;;24.35;44.03
46412;BME280;32113;42.012;24.870;2022-08-19T03:20:49;98548.72;;;24.29;44.16
46412;BME280;32113;42.012;24.870;2022-08-19T03:23:16;98548.72;;;24.29;44.15
46412;BME280;32113;42.012;24.870;2022-08-19T03:25:44;98554.06;;;24.27;44.09
46412;BME280;32113;42.012;24.870;2022-08-19T03:28:11;98547.03;;;24.28;44.14
46412;BME280;32113;42.012;24.870;2022-08-19T03:30:38;98559.91;;;24.31;44.00
46412;BME280;32113;42.012;24.870;2022-08-19T03:33:06;98565.63;;;24.25;43.97
46412;BME280;32113;42.012;24.870;2022-08-19T03:35:32;98573.75;;;24.33;43.93
46412;BME280;32113;42.012;24.870;2022-08-19T03:37:59;98567.03;;;24.18;44.34
46412;BME280;32113;42.012;24.870;2022-08-19T03:40:24;98573.16;;;24.41;43.88
46412;BME280;32113;42.012;24.870;2022-08-19T03:42:50;98585.53;;;24.39;43.73
46412;BME280;32113;42.012;24.870;2022-08-19T03:45:16;98576.72;;;24.28;44.03
46412;BME280;32113;42.012;24.870;2022-08-19T03:47:41;98573.97;;;24.30;44.01
46412;BME280;32113;42.012;24.870;2022-08-19T03:50:07;98575.31;;;24.36;44.04
46412;BME280;32113;42.012;24.870;2022-08-19T03:52:34;98571.94;;;24.22;43.85
46412;BME280;32113;42.012;24.870;2022-08-19T03:55:01;98580.03;;;24.19;44.24
46412;BME280;32113;42.012;24.870;2022-08-19T03:57:27;98578.47;;;24.17;44.46
46412;BME280;32113;42.012;24.870;2022-08-19T03:59:52;98573.22;;;24.17;44.22
46412;BME280;32113;42.012;24.870;2022-08-19T04:02:18;98575.53;;;24.21;44.35
46412;BME280;32113;42.012;24.870;2022-08-19T04:04:43;98577.34;;;24.08;44.56
46412;BME280;32113;42.012;24.870;2022-08-19T04:07:10;98576.97;;;24.01;45.10
46412;BME280;32113;42.012;24.870;2022-08-19T04:09:36;98581.94;;;23.93;45.10
46412;BME280;32113;42.012;24.870;2022-08-19T04:12:02;98578.03;;;23.98;45.04
46412;BME280;32113;42.012;24.870;2022-08-19T04:14:30;98574.44;;;23.99;45.12
46412;BME280;32113;42.012;24.870;2022-08-19T04:16:57;98574.75;;;23.83;45.49
46412;BME280;32113;42.012;24.870;2022-08-19T04:19:23;98579.53;;;23.89;45.37
46412;BME280;32113;42.012;24.870;2022-08-19T04:21:51;98572.97;;;23.84;45.62
46412;BME280;32113;42.012;24.870;2022-08-19T04:24:17;98582.56;;;23.72;46.08
46412;BME280;32113;42.012;24.870;2022-08-19T04:26:43;98573.97;;;23.70;46.23
46412;BME280;32113;42.012;24.870;2022-08-19T04:29:35;98576.97;;;23.77;46.14
46412;BME280;32113;42.012;24.870;2022-08-19T04:32:00;98573.69;;;23.86;46.01
46412;BME280;32113;42.012;24.870;2022-08-19T04:34:27;98570.94;;;23.87;45.70
46412;BME280;32113;42.012;24.870;2022-08-19T04:36:55;98570.00;;;23.88;45.78
46412;BME280;32113;42.012;24.870;2022-08-19T04:39:24;98569.72;;;23.80;45.92
46412;BME280;32113;42.012;24.870;2022-08-19T04:42:13;98577.75;;;23.90;45.77
46412;BME280;32113;42.012;24.870;2022-08-19T04:44:57;98570.28;;;23.97;45.52
46412;BME280;32113;42.012;24.870;2022-08-19T04:47:23;98579.81;;;23.98;45.61
46412;BME280;32113;42.012;24.870;2022-08-19T04:49:49;98575.06;;;24.03;45.45
46412;BME280;32113;42.012;24.870;2022-08-19T04:52:14;98584.34;;;24.07;45.37
46412;BME280;32113;42.012;24.870;2022-08-19T04:54:40;98579.34;;;24.04;45.58
46412;BME280;32113;42.012;24.870;2022-08-19T04:57:09;98577.06;;;23.99;45.76
46412;BME280;32113;42.012;24.870;2022-08-19T04:59:36;98581.63;;;24.09;45.57
46412;BME280;32113;42.012;24.870;2022-08-19T05:02:02;98591.09;;;24.11;45.62
46412;BME280;32113;42.012;24.870;2022-08-19T05:04:28;98592.22;;;24.07;45.63
46412;BME280;32113;42.012;24.870;2022-08-19T05:06:56;98594.09;;;24.30;45.37
46412;BME280;32113;42.012;24.870;2022-08-19T05:09:22;98591.91;;;24.48;45.18
46412;BME280;32113;42.012;24.870;2022-08-19T05:11:48;98591.06;;;24.47;45.10
46412;BME280;32113;42.012;24.870;2022-08-19T05:14:15;98602.00;;;24.41;45.20
46412;BME280;32113;42.012;24.870;2022-08-19T05:16:41;98591.97;;;24.35;45.47
46412;BME280;32113;42.012;24.870;2022-08-19T05:19:07;98596.38;;;24.34;45.41
46412;BME280;32113;42.012;24.870;2022-08-19T05:21:51;98596.13;;;24.37;45.37
46412;BME280;32113;42.012;24.870;2022-08-19T05:24:37;98592.97;;;24.45;44.94
46412;BME280;32113;42.012;24.870;2022-08-19T05:27:02;98599.06;;;24.57;44.85
46412;BME280;32113;42.012;24.870;2022-08-19T05:29:31;98602.16;;;24.74;44.77
46412;BME280;32113;42.012;24.870;2022-08-19T05:31:58;98600.31;;;24.87;44.58
46412;BME280;32113;42.012;24.870;2022-08-19T05:34:25;98595.31;;;24.96;43.92
46412;BME280;32113;42.012;24.870;2022-08-19T05:36:54;98595.03;;;24.99;44.21
46412;BME280;32113;42.012;24.870;2022-08-19T05:39:23;98594.34;;;24.97;44.23
46412;BME280;32113;42.012;24.870;2022-08-19T05:42:00;98588.50;;;25.04;44.06
46412;BME280;32113;42.012;24.870;2022-08-19T05:44:28;98589.44;;;25.15;43.83
46412;BME280;32113;42.012;24.870;2022-08-19T05:46:57;98580.38;;;25.30;43.96
46412;BME280;32113;42.012;24.870;2022-08-19T05:49:23;98585.50;;;25.32;43.73
46412;BME280;32113;42.012;24.870;2022-08-19T05:51:51;98587.50;;;25.28;43.74
46412;BME280;32113;42.012;24.870;2022-08-19T05:54:17;98578.09;;;25.37;43.37
46412;BME280;32113;42.012;24.870;2022-08-19T05:56:43;98584.16;;;25.38;43.41
46412;BME280;32113;42.012;24.870;2022-08-19T05:59:10;98583.69;;;25.44;43.40
46412;BME280;32113;42.012;24.870;2022-08-19T06:01:40;98594.19;;;25.55;43.05
46412;BME280;32113;42.012;24.870;2022-08-19T06:04:06;98592.59;;;25.64;43.42
46412;BME280;32113;42.012;24.870;2022-08-19T06:06:32;98595.78;;;25.79;42.70
46412;BME280;32113;42.012;24.870;2022-08-19T06:09:03;98592.03;;;25.93;42.97
46412;BME280;32113;42.012;24.870;2022-08-19T06:11:41;98592.44;;;26.10;42.22
46412;BME280;32113;42.012;24.870;2022-08-19T06:14:11;98590.81;;;26.19;42.05
46412;BME280;32113;42.012;24.870;2022-08-19T06:16:38;98597.78;;;26.20;41.97
46412;BME280;32113;42.012;24.870;2022-08-19T06:19:07;98604.28;;;26.37;41.81
46412;BME280;32113;42.012;24.870;2022-08-19T06:21:34;98614.91;;;26.57;41.51
46412;BME280;32113;42.012;24.870;2022-08-19T06:24:03;98616.44;;;26.59;41.58
46412;BME280;32113;42.012;24.870;2022-08-19T06:26:29;98609.63;;;26.78;41.45
46412;BME280;32113;42.012;24.870;2022-08-19T06:28:55;98609.41;;;26.91;40.83
46412;BME280;32113;42.012;24.870;2022-08-19T06:31:27;98614.22;;;27.07;40.97
46412;BME280;32113;42.012;24.870;2022-08-19T06:33:53;98621.63;;;27.23;40.94
46412;BME280;32113;42.012;24.870;2022-08-19T06:36:22;98608.34;;;27.35;40.04
46412;BME280;32113;42.012;24.870;2022-08-19T06:38:57;98617.41;;;27.52;40.04
46412;BME280;32113;42.012;24.870;2022-08-19T06:41:24;98617.66;;;27.49;40.05
46412;BME280;32113;42.012;24.870;2022-08-19T06:43:49;98615.22;;;27.67;40.21
46412;BME280;32113;42.012;24.870;2022-08-19T06:46:16;98618.16;;;27.84;39.82
46412;BME280;32113;42.012;24.870;2022-08-19T06:48:44;98611.38;;;28.01;39.38
46412;BME280;32113;42.012;24.870;2022-08-19T06:51:09;98615.78;;;28.10;39.73
46412;BME280;32113;42.012;24.870;2022-08-19T06:53:35;98620.09;;;28.21;39.15
46412;BME280;32113;42.012;24.870;2022-08-19T06:56:01;98614.81;;;28.31;39.38
46412;BME280;32113;42.012;24.870;2022-08-19T06:58:30;98611.78;;;28.36;38.49
46412;BME280;32113;42.012;24.870;2022-08-19T07:01:02;98611.34;;;28.50;38.41
46412;BME280;32113;42.012;24.870;2022-08-19T07:03:32;98607.69;;;28.61;38.60
46412;BME280;32113;42.012;24.870;2022-08-19T07:06:10;98613.91;;;28.80;38.60
46412;BME280;32113;42.012;24.870;2022-08-19T07:08:37;98604.28;;;28.98;38.04
46412;BME280;32113;42.012;24.870;2022-08-19T07:11:07;98602.31;;;29.01;37.89
46412;BME280;32113;42.012;24.870;2022-08-19T07:13:34;98599.91;;;29.07;37.56
46412;BME280;32113;42.012;24.870;2022-08-19T07:16:06;98597.66;;;29.13;38.11
46412;BME280;32113;42.012;24.870;2022-08-19T07:18:32;98599.13;;;29.25;37.56
46412;BME280;32113;42.012;24.870;2022-08-19T07:21:11;98596.75;;;29.32;38.27
46412;BME280;32113;42.012;24.870;2022-08-19T07:23:37;98600.44;;;29.39;37.38
46412;BME280;32113;42.012;24.870;2022-08-19T07:26:15;98603.47;;;29.44;37.54
46412;BME280;32113;42.012;24.870;2022-08-19T07:28:48;98603.03;;;29.49;36.84
46412;BME280;32113;42.012;24.870;2022-08-19T07:31:18;98600.19;;;29.60;36.16
46412;BME280;32113;42.012;24.870;2022-08-19T07:33:44;98600.78;;;29.72;36.82
46412;BME280;32113;42.012;24.870;2022-08-19T07:36:12;98601.72;;;29.81;36.34
46412;BME280;32113;42.012;24.870;2022-08-19T07:38:40;98594.53;;;29.92;36.91
46412;BME280;32113;42.012;24.870;2022-08-19T07:41:06;98593.31;;;30.04;35.83
46412;BME280;32113;42.012;24.870;2022-08-19T07:43:32;98606.69;;;30.21;36.56
46412;BME280;32113;42.012;24.870;2022-08-19T07:45:57;98601.16;;;30.32;36.38
46412;BME280;32113;42.012;24.870;2022-08-19T07:48:25;98597.81;;;30.48;35.68
46412;BME280;32113;42.012;24.870;2022-08-19T07:50:55;98602.38;;;30.64;35.31
46412;BME280;32113;42.012;24.870;2022-08-19T07:53:22;98599.16;;;30.79;35.16
46412;BME280;32113;42.012;24.870;2022-08-19T07:55:48;98607.84;;;30.98;35.42
46412;BME280;32113;42.012;24.870;2022-08-19T07:58:18;98600.00;;;31.23;35.07
46412;BME280;32113;42.012;24.870;2022-08-19T08:00:45;98608.19;;;31.46;34.51
46412;BME280;32113;42.012;24.870;2022-08-19T08:03:12;98601.47;;;31.68;33.21
46412;BME280;32113;42.012;24.870;2022-08-19T08:05:38;98600.16;;;31.89;33.44
46412;BME280;32113;42.012;24.870;2022-08-19T08:08:22;98601.00;;;32.23;32.28
46412;BME280;32113;42.012;24.870;2022-08-19T08:10:56;98602.47;;;32.50;32.30
46412;BME280;32113;42.012;24.870;2022-08-19T08:13:22;98600.09;;;32.72;31.99
46412;BME280;32113;42.012;24.870;2022-08-19T08:15:48;98603.66;;;32.96;32.16
46412;BME280;32113;42.012;24.870;2022-08-19T08:18:13;98598.84;;;33.08;31.92
46412;BME280;32113;42.012;24.870;2022-08-19T08:20:39;98600.22;;;33.27;30.99
46412;BME280;32113;42.012;24.870;2022-08-19T08:23:04;98591.81;;;33.47;30.34
46412;BME280;32113;42.012;24.870;2022-08-19T08:25:50;98593.38;;;33.65;30.77
46412;BME280;32113;42.012;24.870;2022-08-19T08:28:17;98587.09;;;33.81;30.25
46412;BME280;32113;42.012;24.870;2022-08-19T08:30:43;98589.09;;;34.02;30.72
46412;BME280;32113;42.012;24.870;2022-08-19T08:33:10;98590.63;;;34.20;29.65
46412;BME280;32113;42.012;24.870;2022-08-19T08:35:36;98589.00;;;34.34;29.03
46412;BME280;32113;42.012;24.870;2022-08-19T08:38:02;98583.16;;;34.54;28.62
46412;BME280;32113;42.012;24.870;2022-08-19T08:43:24;98594.09;;;34.89;28.57
46412;BME280;32113;42.012;24.870;2022-08-19T08:46:00;98585.44;;;35.02;28.39
46412;BME280;32113;42.012;24.870;2022-08-19T08:48:44;98587.28;;;35.17;28.39
46412;BME280;32113;42.012;24.870;2022-08-19T08:51:16;98573.09;;;35.31;28.33
46412;BME280;32113;42.012;24.870;2022-08-19T08:53:44;98580.22;;;35.46;28.14
46412;BME280;32113;42.012;24.870;2022-08-19T08:56:12;98573.34;;;35.58;28.08
46412;BME280;32113;42.012;24.870;2022-08-19T08:59:05;98567.41;;;35.78;27.68
46412;BME280;32113;42.012;24.870;2022-08-19T09:01:35;98559.91;;;35.88;27.82
46412;BME280;32113;42.012;24.870;2022-08-19T09:04:04;98562.69;;;36.02;27.45
46412;BME280;32113;42.012;24.870;2022-08-19T09:09:17;98554.66;;;36.31;26.90
46412;BME280;32113;42.012;24.870;2022-08-19T09:12:09;98547.13;;;36.41;26.92
46412;BME280;32113;42.012;24.870;2022-08-19T09:17:24;98548.88;;;36.62;25.73
46412;BME280;32113;42.012;24.870;2022-08-19T09:19:59;98546.88;;;36.64;26.75
46412;BME280;32113;42.012;24.870;2022-08-19T09:22:27;98543.81;;;36.67;25.47
46412;BME280;32113;42.012;24.870;2022-08-19T09:24:54;98548.50;;;36.65;25.42
46412;BME280;32113;42.012;24.870;2022-08-19T09:27:21;98539.91;;;36.70;25.57
46412;BME280;32113;42.012;24.870;2022-08-19T09:29:49;98531.34;;;36.88;25.56
46412;BME280;32113;42.012;24.870;2022-08-19T09:32:15;98539.44;;;37.08;25.34
46412;BME280;32113;42.012;24.870;2022-08-19T09:34:40;98535.38;;;37.19;24.51
46412;BME280;32113;42.012;24.870;2022-08-19T09:37:07;98533.06;;;37.10;24.23
46412;BME280;32113;42.012;24.870;2022-08-19T09:39:32;98536.94;;;37.00;24.18
46412;BME280;32113;42.012;24.870;2022-08-19T09:41:58;98535.13;;;37.14;24.75
46412;BME280;32113;42.012;24.870;2022-08-19T09:44:23;98531.47;;;37.22;24.36
46412;BME280;32113;42.012;24.870;2022-08-19T09:46:49;98525.53;;;37.47;23.66
46412;BME280;32113;42.012;24.870;2022-08-19T09:49:20;98527.81;;;37.43;23.26
46412;BME280;32113;42.012;24.870;2022-08-19T09:51:52;98523.66;;;37.54;22.94
46412;BME280;32113;42.012;24.870;2022-08-19T09:54:22;98528.41;;;37.59;23.47
46412;BME280;32113;42.012;24.870;2022-08-19T09:56:47;98516.72;;;37.80;23.15
46412;BME280;32113;42.012;24.870;2022-08-19T09:59:13;98514.22;;;37.92;22.44
46412;BME280;32113;42.012;24.870;2022-08-19T10:01:38;98512.78;;;38.03;22.11
46412;BME280;32113;42.012;24.870;2022-08-19T10:04:04;98513.59;;;38.04;22.54
46412;BME280;32113;42.012;24.870;2022-08-19T10:06:34;98509.06;;;38.04;22.15
46412;BME280;32113;42.012;24.870;2022-08-19T10:09:00;98511.13;;;38.16;22.23
46412;BME280;32113;42.012;24.870;2022-08-19T10:11:26;98503.50;;;38.26;21.35
46412;BME280;32113;42.012;24.870;2022-08-19T10:13:51;98508.84;;;38.33;21.62
46412;BME280;32113;42.012;24.870;2022-08-19T10:16:19;98504.88;;;38.42;21.10
46412;BME280;32113;42.012;24.870;2022-08-19T10:18:46;98497.22;;;38.59;21.20
46412;BME280;32113;42.012;24.870;2022-08-19T10:21:15;98495.50;;;38.72;20.69
46412;BME280;32113;42.012;24.870;2022-08-19T10:23:43;98495.09;;;38.68;20.25
46412;BME280;32113;42.012;24.870;2022-08-19T10:26:18;98484.75;;;38.79;19.98
46412;BME280;32113;42.012;24.870;2022-08-19T10:28:44;98482.25;;;38.84;20.71
46412;BME280;32113;42.012;24.870;2022-08-19T10:31:20;98482.78;;;38.99;20.89
46412;BME280;32113;42.012;24.870;2022-08-19T10:33:50;98484.78;;;39.11;19.84
46412;BME280;32113;42.012;24.870;2022-08-19T10:36:19;98474.03;;;39.18;21.00
46412;BME280;32113;42.012;24.870;2022-08-19T10:38:47;98477.69;;;39.23;20.57
46412;BME280;32113;42.012;24.870;2022-08-19T10:41:17;98478.03;;;39.34;20.55
46412;BME280;32113;42.012;24.870;2022-08-19T10:43:44;98481.31;;;39.36;19.69
46412;BME280;32113;42.012;24.870;2022-08-19T10:46:13;98484.81;;;39.36;19.81
46412;BME280;32113;42.012;24.870;2022-08-19T10:48:41;98481.09;;;39.37;19.91
46412;BME280;32113;42.012;24.870;2022-08-19T10:51:07;98479.72;;;39.28;19.89
46412;BME280;32113;42.012;24.870;2022-08-19T10:53:51;98477.81;;;39.35;19.48
46412;BME280;32113;42.012;24.870;2022-08-19T10:56:17;98470.34;;;39.37;19.11
46412;BME280;32113;42.012;24.870;2022-08-19T10:59:01;98470.09;;;39.46;19.44
46412;BME280;32113;42.012;24.870;2022-08-19T11:01:29;98473.16;;;39.49;19.66
46412;BME280;32113;42.012;24.870;2022-08-19T11:03:56;98478.50;;;39.49;19.38
46412;BME280;32113;42.012;24.870;2022-08-19T11:06:22;98475.00;;;39.55;18.88
46412;BME280;32113;42.012;24.870;2022-08-19T11:08:48;98468.97;;;39.60;18.89
46412;BME280;32113;42.012;24.870;2022-08-19T11:11:13;98458.97;;;39.16;18.78
46412;BME280;32113;42.012;24.870;2022-08-19T11:13:40;98456.97;;;39.05;18.99
46412;BME280;32113;42.012;24.870;2022-08-19T11:16:10;98460.06;;;39.09;19.57
46412;BME280;32113;42.012;24.870;2022-08-19T11:18:41;98453.56;;;39.23;19.34
46412;BME280;32113;42.012;24.870;2022-08-19T11:21:15;98452.91;;;39.28;19.73
46412;BME280;32113;42.012;24.870;2022-08-19T11:23:43;98465.28;;;39.29;19.26
46412;BME280;32113;42.012;24.870;2022-08-19T11:26:08;98455.75;;;39.08;19.31
46412;BME280;32113;42.012;24.870;2022-08-19T11:28:35;98444.03;;;38.95;18.90
46412;BME280;32113;42.012;24.870;2022-08-19T11:31:00;98445.84;;;39.01;19.88
46412;BME280;32113;42.012;24.870;2022-08-19T11:33:29;98445.25;;;39.06;19.66
46412;BME280;32113;42.012;24.870;2022-08-19T11:35:59;98441.00;;;39.17;20.11
46412;BME280;32113;42.012;24.870;2022-08-19T11:38:26;98447.75;;;39.26;18.79
46412;BME280;32113;42.012;24.870;2022-08-19T11:40:58;98445.69;;;39.28;18.93
46412;BME280;32113;42.012;24.870;2022-08-19T11:43:25;98443.59;;;39.31;19.15
46412;BME280;32113;42.012;24.870;2022-08-19T11:45:52;98445.84;;;39.34;19.63
46412;BME280;32113;42.012;24.870;2022-08-19T11:48:18;98430.63;;;39.27;18.90
46412;BME280;32113;42.012;24.870;2022-08-19T11:50:48;98422.53;;;39.34;19.47
46412;BME280;32113;42.012;24.870;2022-08-19T11:53:14;98420.88;;;39.33;19.72
46412;BME280;32113;42.012;24.870;2022-08-19T11:55:40;98428.13;;;39.33;18.65
46412;BME280;32113;42.012;24.870;2022-08-19T11:58:06;98418.81;;;39.35;18.30
46412;BME280;32113;42.012;24.870;2022-08-19T12:00:34;98417.91;;;39.41;18.10
46412;BME280;32113;42.012;24.870;2022-08-19T12:03:01;98416.50;;;39.39;18.07
46412;BME280;32113;42.012;24.870;2022-08-19T12:05:27;98422.47;;;39.41;18.56
46412;BME280;32113;42.012;24.870;2022-08-19T12:07:52;98415.81;;;39.50;18.77
46412;BME280;32113;42.012;24.870;2022-08-19T12:10:19;98413.88;;;39.58;18.96
46412;BME280;32113;42.012;24.870;2022-08-19T12:12:44;98408.22;;;39.66;18.52
46412;BME280;32113;42.012;24.870;2022-08-19T12:15:11;98410.69;;;39.67;19.17
46412;BME280;32113;42.012;24.870;2022-08-19T12:17:37;98411.22;;;39.76;19.54
46412;BME280;32113;42.012;24.870;2022-08-19T12:20:04;98398.56;;;39.84;19.52
46412;BME280;32113;42.012;24.870;2022-08-19T12:22:30;98402.25;;;39.83;18.91
46412;BME280;32113;42.012;24.870;2022-08-19T12:24:56;98397.94;;;39.81;18.22
46412;BME280;32113;42.012;24.870;2022-08-19T12:27:21;98399.00;;;39.80;18.42
46412;BME280;32113;42.012;24.870;2022-08-19T12:29:47;98396.44;;;39.67;18.29
46412;BME280;32113;42.012;24.870;2022-08-19T12:32:12;98396.88;;;39.64;17.51
46412;BME280;32113;42.012;24.870;2022-08-19T12:34:38;98402.16;;;39.52;17.91
46412;BME280;32113;42.012;24.870;2022-08-19T12:37:05;98394.38;;;39.44;18.10
46412;BME280;32113;42.012;24.870;2022-08-19T12:39:36;98389.25;;;39.42;18.26
46412;BME280;32113;42.012;24.870;2022-08-19T12:42:04;98394.81;;;39.40;19.20
46412;BME280;32113;42.012;24.870;2022-08-19T12:44:29;98396.66;;;39.40;18.96
46412;BME280;32113;42.012;24.870;2022-08-19T12:46:56;98392.47;;;39.25;18.25
46412;BME280;32113;42.012;24.870;2022-08-19T12:49:21;98384.69;;;39.17;18.58
46412;BME280;32113;42.012;24.870;2022-08-19T12:51:47;98388.25;;;39.11;18.62
46412;BME280;32113;42.012;24.870;2022-08-19T12:54:12;98383.13;;;39.09;18.49
46412;BME280;32113;42.012;24.870;2022-08-19T12:56:38;98391.41;;;39.08;18.67
46412;BME280;32113;42.012;24.870;2022-08-19T12:59:04;98384.16;;;39.08;18.99
46412;BME280;32113;42.012;24.870;2022-08-19T13:01:30;98394.31;;;38.99;18.80
46412;BME280;32113;42.012;24.870;2022-08-19T13:03:58;98386.09;;;38.94;17.66
46412;BME280;32113;42.012;24.870;2022-08-19T13:06:23;98380.97;;;38.93;18.24
46412;BME280;32113;42.012;24.870;2022-08-19T13:08:49;98380.06;;;38.99;18.67